createdAt,value
2017-12-30T00:00:12.827Z,75.50
2017-12-30T00:02:41.694Z,75.70
2017-12-30T00:05:09.758Z,75.90
2017-12-30T00:07:38.263Z,76.10
2017-12-30T00:10:06.330Z,76.10
2017-12-30T00:12:34.411Z,75.90
2017-12-30T00:15:02.483Z,76.40
2017-12-30T00:17:31.339Z,76.40
2017-12-30T00:19:59.548Z,76.20
2017-12-30T00:22:27.994Z,76.10
2017-12-30T00:24:56.094Z,76.50
2017-12-30T00:27:24.167Z,76.60
2017-12-30T00:29:52.216Z,76.50
2017-12-30T00:32:20.288Z,76.90
2017-12-30T00:34:48.342Z,77.00
2017-12-30T00:37:16.447Z,76.80
2017-12-30T00:39:44.702Z,76.90
2017-12-30T00:42:14.138Z,77.20
2017-12-30T00:44:42.251Z,77.40
2017-12-30T00:47:10.323Z,78.70
2017-12-30T00:49:38.431Z,77.50
2017-12-30T00:52:06.601Z,78.10
2017-12-30T00:54:34.685Z,78.20
2017-12-30T00:57:02.846Z,77.50
2017-12-30T00:59:30.918Z,77.70
2017-12-30T01:01:58.984Z,77.60
2017-12-30T01:04:27.069Z,77.70
2017-12-30T01:06:55.117Z,78.20
2017-12-30T01:09:23.181Z,78.30
2017-12-30T01:11:51.251Z,77.70
2017-12-30T01:14:19.323Z,77.90
2017-12-30T01:16:47.382Z,77.80
2017-12-30T01:19:15.443Z,78.00
2017-12-30T01:21:43.502Z,78.10
2017-12-30T01:24:11.563Z,78.10
2017-12-30T01:26:39.618Z,78.30
2017-12-30T01:29:08.460Z,77.40
2017-12-30T01:31:36.563Z,77.30
2017-12-30T01:34:04.639Z,77.30
2017-12-30T01:36:32.707Z,77.10
2017-12-30T01:39:00.786Z,76.90
2017-12-30T01:41:28.842Z,76.90
2017-12-30T01:43:56.896Z,76.40
2017-12-30T01:46:24.962Z,76.60
2017-12-30T01:49:03.986Z,76.10
2017-12-30T01:51:32.040Z,76.20
2017-12-30T01:54:00.104Z,75.60
2017-12-30T01:56:28.176Z,75.90
2017-12-30T01:58:56.284Z,75.30
2017-12-30T02:01:24.346Z,75.10
2017-12-30T02:03:52.413Z,74.20
2017-12-30T02:06:20.475Z,73.50
2017-12-30T02:08:48.521Z,74.00
2017-12-30T02:11:16.598Z,73.00
2017-12-30T02:13:44.668Z,72.70
2017-12-30T02:16:12.726Z,72.50
2017-12-30T02:18:40.862Z,72.30
2017-12-30T02:21:09.593Z,73.70
2017-12-30T02:23:37.642Z,71.80
2017-12-30T02:26:06.495Z,72.00
2017-12-30T02:28:34.558Z,72.00
2017-12-30T02:31:02.638Z,71.70
2017-12-30T02:33:30.685Z,71.00
2017-12-30T02:35:58.752Z,70.90
2017-12-30T02:38:26.807Z,70.90
2017-12-30T02:40:54.905Z,71.00
2017-12-30T02:43:22.970Z,71.00
2017-12-30T02:45:51.042Z,70.70
2017-12-30T02:48:19.100Z,70.90
2017-12-30T02:50:47.199Z,71.00
2017-12-30T02:53:15.269Z,71.00
2017-12-30T02:55:43.331Z,71.00
2017-12-30T02:58:11.403Z,70.90
2017-12-30T03:00:39.479Z,71.30
2017-12-30T03:03:07.648Z,72.20
2017-12-30T03:05:35.700Z,71.90
2017-12-30T03:08:04.472Z,71.80
2017-12-30T03:10:32.529Z,72.40
2017-12-30T03:13:00.882Z,73.30
2017-12-30T03:15:29.715Z,73.00
2017-12-30T03:17:57.814Z,73.00
2017-12-30T03:20:25.878Z,73.00
2017-12-30T03:22:53.942Z,72.90
2017-12-30T03:25:22.005Z,72.90
2017-12-30T03:27:50.058Z,72.10
2017-12-30T03:30:18.169Z,71.70
2017-12-30T03:32:46.242Z,71.70
2017-12-30T03:35:14.576Z,70.90
2017-12-30T03:37:42.636Z,71.40
2017-12-30T03:40:10.759Z,70.90
2017-12-30T03:42:38.863Z,70.90
2017-12-30T03:45:07.714Z,71.00
2017-12-30T03:47:35.775Z,70.90
2017-12-30T03:50:03.839Z,70.60
2017-12-30T03:52:31.909Z,70.00
2017-12-30T03:54:59.958Z,69.60
2017-12-30T03:57:28.043Z,69.90
2017-12-30T03:59:56.101Z,70.50
2017-12-30T04:02:24.149Z,71.00
2017-12-30T04:04:52.209Z,71.10
2017-12-30T04:07:21.070Z,70.80
2017-12-30T04:09:49.139Z,70.70
2017-12-30T04:12:17.192Z,70.80
2017-12-30T04:14:45.259Z,69.60
2017-12-30T04:17:13.322Z,69.40
2017-12-30T04:19:41.393Z,69.60
2017-12-30T04:22:09.449Z,69.60
2017-12-30T04:24:37.505Z,69.80
2017-12-30T04:27:05.550Z,69.30
2017-12-30T04:29:34.385Z,69.30
2017-12-30T04:32:02.486Z,69.30
2017-12-30T04:34:30.549Z,69.90
2017-12-30T04:36:58.606Z,70.40
2017-12-30T04:39:26.669Z,70.10
2017-12-30T04:41:55.301Z,69.90
2017-12-30T04:44:24.161Z,70.00
2017-12-30T04:46:52.337Z,70.70
2017-12-30T04:49:20.403Z,69.90
2017-12-30T04:51:48.450Z,70.10
2017-12-30T04:54:16.519Z,70.70
2017-12-30T04:56:44.564Z,70.50
2017-12-30T04:59:13.389Z,71.40
2017-12-30T05:01:41.468Z,71.40
2017-12-30T05:04:09.736Z,71.40
2017-12-30T05:06:37.790Z,70.50
2017-12-30T05:09:05.899Z,70.10
2017-12-30T05:11:33.954Z,70.50
2017-12-30T05:14:02.500Z,71.10
2017-12-30T05:16:30.563Z,70.50
2017-12-30T05:18:58.695Z,70.20
2017-12-30T05:21:26.858Z,70.30
2017-12-30T05:23:54.909Z,70.60
2017-12-30T05:26:22.965Z,70.80
2017-12-30T05:28:51.017Z,70.80
2017-12-30T05:31:19.837Z,70.40
2017-12-30T05:33:47.900Z,70.40
2017-12-30T05:36:15.996Z,70.70
2017-12-30T05:38:44.075Z,70.60
2017-12-30T05:41:12.132Z,70.60
2017-12-30T05:43:40.279Z,71.30
2017-12-30T05:46:08.362Z,71.30
2017-12-30T05:48:36.417Z,71.10
2017-12-30T05:51:04.486Z,71.60
2017-12-30T05:53:32.546Z,70.80
2017-12-30T05:56:00.622Z,70.20
2017-12-30T05:58:28.700Z,70.60
2017-12-30T06:00:56.766Z,70.40
2017-12-30T06:03:24.829Z,70.60
2017-12-30T06:05:53.652Z,71.40
2017-12-30T06:08:21.748Z,71.30
2017-12-30T06:10:49.803Z,71.80
2017-12-30T06:13:17.857Z,71.10
2017-12-30T06:15:45.923Z,71.80
2017-12-30T06:18:13.984Z,71.80
2017-12-30T06:20:42.048Z,71.90
2017-12-30T06:23:10.113Z,71.90
2017-12-30T06:25:38.236Z,72.50
2017-12-30T06:28:06.705Z,72.10
2017-12-30T06:30:34.775Z,72.00
2017-12-30T06:33:02.876Z,71.90
2017-12-30T06:35:31.195Z,72.50
2017-12-30T06:37:59.302Z,72.90
2017-12-30T06:40:27.479Z,72.60
2017-12-30T06:42:55.528Z,72.70
2017-12-30T06:45:23.628Z,72.70
2017-12-30T06:47:51.679Z,73.20
2017-12-30T06:50:19.739Z,73.40
2017-12-30T06:52:47.790Z,73.80
2017-12-30T06:55:15.889Z,74.20
2017-12-30T06:57:43.959Z,74.00
2017-12-30T07:00:12.020Z,74.00
2017-12-30T07:02:40.079Z,74.50
2017-12-30T07:05:08.154Z,74.40
2017-12-30T07:07:36.219Z,75.10
2017-12-30T07:10:04.284Z,75.00
2017-12-30T07:12:32.358Z,74.70
2017-12-30T07:15:00.413Z,75.00
2017-12-30T07:17:28.478Z,74.80
2017-12-30T07:19:56.543Z,74.60
2017-12-30T07:22:25.370Z,75.60
2017-12-30T07:24:53.429Z,75.60
2017-12-30T07:27:21.494Z,76.30
2017-12-30T07:29:49.547Z,76.30
2017-12-30T07:32:17.665Z,76.50
2017-12-30T07:34:45.728Z,76.40
2017-12-30T07:37:13.794Z,76.40
2017-12-30T07:39:41.862Z,76.70
2017-12-30T07:42:09.932Z,76.00
2017-12-30T07:44:38.634Z,76.10
2017-12-30T07:47:06.694Z,75.90
2017-12-30T07:49:34.757Z,75.90
2017-12-30T07:52:02.821Z,75.50
2017-12-30T07:54:30.884Z,75.30
2017-12-30T07:56:58.949Z,75.30
2017-12-30T07:59:27.068Z,75.30
2017-12-30T08:01:55.871Z,75.30
2017-12-30T08:04:23.938Z,75.50
2017-12-30T08:06:52.020Z,74.50
2017-12-30T08:09:20.842Z,75.50
2017-12-30T08:11:48.914Z,75.40
2017-12-30T08:14:16.974Z,75.50
2017-12-30T08:16:45.525Z,75.70
2017-12-30T08:19:13.578Z,76.40
2017-12-30T08:21:41.629Z,76.20
2017-12-30T08:24:09.714Z,75.90
2017-12-30T08:26:37.776Z,75.70
2017-12-30T08:29:05.839Z,75.80
2017-12-30T08:31:33.909Z,75.40
2017-12-30T08:34:01.961Z,76.90
2017-12-30T08:36:30.036Z,76.40
2017-12-30T08:38:58.097Z,76.30
2017-12-30T08:41:26.156Z,76.00
2017-12-30T08:43:54.209Z,76.60
2017-12-30T08:46:23.057Z,77.80
2017-12-30T08:48:51.104Z,77.80
2017-12-30T08:51:19.202Z,78.00
2017-12-30T08:53:47.273Z,78.00
2017-12-30T08:56:15.335Z,77.60
2017-12-30T08:58:43.397Z,77.40
2017-12-30T09:01:11.479Z,77.30
2017-12-30T09:03:39.670Z,76.60
2017-12-30T09:06:07.734Z,76.50
2017-12-30T09:08:35.807Z,77.00
2017-12-30T09:11:03.881Z,77.30
2017-12-30T09:13:31.942Z,76.90
2017-12-30T09:16:00.007Z,76.10
2017-12-30T09:18:28.076Z,75.80
2017-12-30T09:20:56.153Z,76.30
2017-12-30T09:23:24.320Z,75.80
2017-12-30T09:25:52.382Z,75.60
2017-12-30T09:28:20.457Z,75.80
2017-12-30T09:30:48.566Z,75.90
2017-12-30T09:33:17.390Z,76.30
2017-12-30T09:35:45.456Z,75.40
2017-12-30T09:38:13.536Z,75.40
2017-12-30T09:40:41.585Z,75.10
2017-12-30T09:43:09.638Z,75.10
2017-12-30T09:45:38.512Z,74.10
2017-12-30T09:48:06.561Z,74.10
2017-12-30T09:50:34.632Z,74.20
2017-12-30T09:53:02.710Z,74.10
2017-12-30T09:55:30.774Z,74.30
2017-12-30T09:57:58.851Z,74.10
2017-12-30T10:00:26.927Z,74.20
2017-12-30T10:02:54.999Z,74.30
2017-12-30T10:05:23.496Z,73.50
2017-12-30T10:07:52.420Z,74.10
2017-12-30T10:10:20.480Z,74.10
2017-12-30T10:12:48.538Z,74.20
2017-12-30T10:15:17.376Z,73.70
2017-12-30T10:17:45.428Z,73.60
2017-12-30T10:20:13.596Z,74.10
2017-12-30T10:22:41.656Z,73.50
2017-12-30T10:25:09.989Z,73.10
2017-12-30T10:27:38.078Z,72.50
2017-12-30T10:30:06.945Z,70.70
2017-12-30T10:32:35.017Z,70.60
2017-12-30T10:35:03.080Z,69.90
2017-12-30T10:37:31.153Z,69.40
2017-12-30T10:39:59.207Z,70.30
2017-12-30T10:42:27.299Z,70.80
2017-12-30T10:44:55.361Z,71.10
2017-12-30T10:47:23.674Z,71.50
2017-12-30T10:49:51.802Z,72.30
2017-12-30T10:52:20.114Z,71.90
2017-12-30T10:54:49.472Z,71.70
2017-12-30T10:57:17.543Z,71.60
2017-12-30T10:59:45.607Z,71.80
2017-12-30T11:02:13.810Z,71.90
2017-12-30T11:04:41.869Z,72.40
2017-12-30T11:07:09.938Z,72.60
2017-12-30T11:09:38.007Z,72.70
2017-12-30T11:12:06.807Z,73.70
2017-12-30T11:14:34.861Z,73.30
2017-12-30T11:17:02.942Z,73.10
2017-12-30T11:19:31.011Z,74.10
2017-12-30T11:21:59.078Z,78.90
2017-12-30T11:24:27.139Z,77.50
2017-12-30T11:26:55.213Z,75.00
2017-12-30T11:29:23.277Z,72.60
2017-12-30T11:31:51.342Z,68.80
2017-12-30T11:34:19.419Z,68.00
2017-12-30T11:36:47.492Z,68.90
2017-12-30T11:39:15.564Z,69.50
2017-12-30T11:41:43.625Z,70.00
2017-12-30T11:44:11.700Z,70.50
2017-12-30T11:46:39.753Z,71.60
2017-12-30T11:49:07.819Z,71.70
2017-12-30T11:51:35.877Z,72.50
2017-12-30T11:54:03.950Z,72.30
2017-12-30T11:56:32.062Z,72.30
2017-12-30T11:59:00.125Z,72.70
2017-12-30T12:01:28.191Z,72.10
2017-12-30T12:03:56.263Z,71.90
2017-12-30T12:06:24.316Z,71.70
2017-12-30T12:08:52.502Z,72.00
2017-12-30T12:11:20.609Z,72.10
2017-12-30T12:13:48.676Z,71.90
2017-12-30T12:16:16.791Z,72.30
2017-12-30T12:18:44.883Z,73.00
2017-12-30T12:21:13.001Z,73.80
2017-12-30T12:23:41.826Z,75.60
2017-12-30T12:26:09.902Z,74.60
2017-12-30T12:28:37.965Z,74.20
2017-12-30T12:31:06.388Z,74.50
2017-12-30T12:33:35.114Z,74.60
2017-12-30T12:36:03.170Z,74.50
2017-12-30T12:38:32.019Z,74.50
2017-12-30T12:41:00.519Z,74.50
2017-12-30T12:43:28.583Z,74.50
2017-12-30T12:45:56.637Z,74.50
2017-12-30T12:48:24.728Z,74.50
2017-12-30T12:50:52.804Z,75.00
2017-12-30T12:53:20.867Z,75.50
2017-12-30T12:55:48.921Z,75.30
2017-12-30T12:58:17.012Z,74.50
2017-12-30T13:00:45.074Z,74.50
2017-12-30T13:03:13.146Z,75.20
2017-12-30T13:05:41.825Z,74.50
2017-12-30T13:08:09.883Z,74.60
2017-12-30T13:10:38.186Z,73.70
2017-12-30T13:13:07.334Z,73.70
2017-12-30T13:15:35.411Z,73.70
2017-12-30T13:18:03.479Z,73.50
2017-12-30T13:20:31.676Z,72.10
2017-12-30T13:22:59.993Z,72.10
2017-12-30T13:25:28.820Z,72.00
2017-12-30T13:27:56.892Z,72.00
2017-12-30T13:30:24.985Z,71.80
2017-12-30T13:32:53.230Z,71.00
2017-12-30T13:35:21.307Z,70.80
2017-12-30T13:37:52.594Z,71.30
2017-12-30T13:40:20.958Z,71.60
2017-12-30T13:42:49.039Z,71.80
2017-12-30T13:45:17.609Z,71.60
2017-12-30T13:47:45.677Z,70.80
2017-12-30T13:50:13.745Z,70.80
2017-12-30T13:52:41.809Z,70.20
2017-12-30T13:55:09.977Z,69.30
2017-12-30T13:57:38.047Z,69.50
2017-12-30T14:00:06.103Z,69.80
2017-12-30T14:02:34.179Z,69.70
2017-12-30T14:05:02.263Z,70.20
2017-12-30T14:07:30.342Z,70.60
2017-12-30T14:09:58.423Z,71.10
2017-12-30T14:12:26.603Z,71.20
2017-12-30T14:14:55.254Z,70.80
2017-12-30T14:17:23.346Z,71.90
2017-12-30T14:19:52.444Z,72.80
2017-12-30T14:22:20.527Z,74.50
2017-12-30T14:24:48.695Z,74.50
2017-12-30T14:27:16.753Z,75.80
2017-12-30T14:29:44.814Z,77.20
2017-12-30T14:32:12.888Z,79.20
2017-12-30T14:34:40.958Z,80.40
2017-12-30T14:37:09.356Z,83.10
2017-12-30T14:39:37.432Z,84.00
2017-12-30T14:42:05.485Z,84.20
2017-12-30T14:44:33.574Z,86.40
2017-12-30T14:47:01.640Z,88.00
2017-12-30T14:49:29.699Z,88.10
2017-12-30T14:51:57.758Z,88.50
2017-12-30T14:54:25.813Z,88.10
2017-12-30T14:56:54.021Z,88.80
2017-12-30T14:59:22.091Z,89.30
2017-12-30T15:01:50.183Z,90.10
2017-12-30T15:04:19.020Z,91.60
2017-12-30T15:06:47.090Z,91.50
2017-12-30T15:09:15.259Z,91.60
2017-12-30T15:11:43.326Z,91.70
2017-12-30T15:14:12.024Z,92.10
2017-12-30T15:16:40.539Z,92.60
2017-12-30T15:19:08.708Z,92.50
2017-12-30T15:21:36.789Z,93.30
2017-12-30T15:24:04.855Z,93.20
2017-12-30T15:26:32.916Z,93.30
2017-12-30T15:29:01.175Z,93.80
2017-12-30T15:31:29.341Z,93.80
2017-12-30T15:33:57.401Z,93.90
2017-12-30T15:36:25.466Z,94.00
2017-12-30T15:38:53.531Z,94.10
2017-12-30T15:41:21.623Z,94.40
2017-12-30T15:43:52.034Z,94.50
2017-12-30T15:46:20.130Z,94.60
2017-12-30T15:48:48.185Z,94.60
2017-12-30T15:51:16.375Z,94.70
2017-12-30T15:53:44.451Z,94.90
2017-12-30T15:56:12.515Z,94.70
2017-12-30T15:58:41.271Z,95.90
2017-12-30T16:01:09.345Z,95.20
2017-12-30T16:03:37.391Z,94.50
2017-12-30T16:06:05.486Z,94.40
2017-12-30T16:08:35.026Z,95.00
2017-12-30T16:11:03.090Z,95.00
2017-12-30T16:13:31.168Z,95.20
2017-12-30T16:15:59.222Z,95.40
2017-12-30T16:18:27.283Z,95.10
2017-12-30T16:20:55.346Z,95.20
2017-12-30T16:23:23.421Z,95.30
2017-12-30T16:25:51.490Z,95.00
2017-12-30T16:28:19.533Z,95.20
2017-12-30T16:30:47.599Z,95.10
2017-12-30T16:33:15.667Z,95.40
2017-12-30T16:35:43.739Z,95.50
2017-12-30T16:38:11.821Z,95.30
2017-12-30T16:40:40.482Z,95.30
2017-12-30T16:43:09.305Z,95.40
2017-12-30T16:45:37.711Z,95.40
2017-12-30T16:48:05.761Z,95.50
2017-12-30T16:50:34.761Z,95.40
2017-12-30T16:53:02.815Z,95.70
2017-12-30T16:55:30.887Z,95.60
2017-12-30T16:57:58.956Z,95.60
2017-12-30T17:00:27.031Z,95.50
2017-12-30T17:02:55.114Z,95.60
2017-12-30T17:05:23.177Z,95.60
2017-12-30T17:07:51.244Z,95.50
2017-12-30T17:10:19.333Z,95.80
2017-12-30T17:12:47.392Z,95.60
2017-12-30T17:15:15.480Z,95.70
2017-12-30T17:17:43.538Z,95.50
2017-12-30T17:20:11.607Z,95.60
2017-12-30T17:22:39.661Z,95.50
2017-12-30T17:25:07.735Z,95.40
2017-12-30T17:27:35.868Z,95.50
2017-12-30T17:30:04.710Z,95.50
2017-12-30T17:32:33.566Z,95.50
2017-12-30T17:35:01.636Z,95.60
2017-12-30T17:37:29.702Z,95.30
2017-12-30T17:39:57.765Z,95.20
2017-12-30T17:42:26.589Z,95.30
2017-12-30T17:44:55.556Z,95.30
2017-12-30T17:47:23.633Z,95.20
2017-12-30T17:49:51.705Z,95.20
2017-12-30T17:52:20.322Z,95.20
2017-12-30T17:54:48.391Z,95.50
2017-12-30T17:57:16.472Z,95.50
2017-12-30T17:59:44.545Z,95.50
2017-12-30T18:02:12.676Z,95.90
2017-12-30T18:04:40.727Z,96.30
2017-12-30T18:07:08.799Z,96.50
2017-12-30T18:09:36.867Z,96.90
2017-12-30T18:12:04.936Z,96.70
2017-12-30T18:14:32.997Z,96.90
2017-12-30T18:17:01.070Z,96.80
2017-12-30T18:19:29.128Z,97.00
2017-12-30T18:21:58.663Z,96.80
2017-12-30T18:24:26.728Z,96.80
2017-12-30T18:26:54.804Z,96.70
2017-12-30T18:29:23.627Z,96.60
2017-12-30T18:31:51.774Z,96.70
2017-12-30T18:34:19.855Z,96.90
2017-12-30T18:36:47.910Z,96.80
2017-12-30T18:39:16.013Z,97.00
2017-12-30T18:41:44.606Z,96.90
2017-12-30T18:44:12.884Z,96.80
2017-12-30T18:46:40.963Z,96.80
2017-12-30T18:49:09.035Z,96.90
2017-12-30T18:51:37.106Z,96.70
2017-12-30T18:54:05.259Z,96.70
2017-12-30T18:56:33.326Z,97.00
2017-12-30T18:59:01.847Z,96.70
2017-12-30T19:01:31.220Z,96.70
2017-12-30T19:03:59.498Z,96.60
2017-12-30T19:06:27.551Z,96.80
2017-12-30T19:08:55.703Z,96.60
2017-12-30T19:11:23.852Z,96.50
2017-12-30T19:13:51.912Z,96.40
2017-12-30T19:16:20.047Z,96.50
2017-12-30T19:18:48.105Z,96.20
2017-12-30T19:21:16.183Z,96.00
2017-12-30T19:23:44.269Z,96.10
2017-12-30T19:26:12.455Z,96.00
2017-12-30T19:28:41.299Z,95.90
2017-12-30T19:31:09.368Z,95.90
2017-12-30T19:33:37.448Z,95.90
2017-12-30T19:36:05.509Z,95.80
2017-12-30T19:38:33.581Z,95.80
2017-12-30T19:41:01.852Z,95.70
2017-12-30T19:43:29.928Z,95.90
2017-12-30T19:45:59.531Z,95.70
2017-12-30T19:48:27.610Z,95.70
2017-12-30T19:50:55.698Z,95.70
2017-12-30T19:53:23.749Z,95.60
2017-12-30T19:55:51.838Z,95.70
2017-12-30T19:58:19.916Z,95.90
2017-12-30T20:00:47.987Z,95.90
2017-12-30T20:03:16.055Z,95.90
2017-12-30T20:05:44.127Z,96.00
2017-12-30T20:08:12.295Z,96.00
2017-12-30T20:10:40.363Z,96.00
2017-12-30T20:13:08.436Z,96.10
2017-12-30T20:15:36.519Z,96.00
2017-12-30T20:18:04.599Z,96.10
2017-12-30T20:20:33.428Z,95.50
2017-12-30T20:23:01.496Z,95.50
2017-12-30T20:25:29.582Z,95.70
2017-12-30T20:27:58.429Z,95.70
2017-12-30T20:30:26.519Z,95.60
2017-12-30T20:32:54.650Z,95.40
2017-12-30T20:35:22.818Z,95.60
2017-12-30T20:37:51.686Z,95.80
2017-12-30T20:40:19.806Z,95.50
2017-12-30T20:42:47.892Z,95.30
2017-12-30T20:45:15.972Z,95.00
2017-12-30T20:47:44.039Z,94.90
2017-12-30T20:50:12.115Z,94.90
2017-12-30T20:52:40.173Z,94.90
2017-12-30T20:55:08.239Z,94.80
2017-12-30T20:57:36.285Z,94.70
2017-12-30T21:00:05.250Z,94.20
2017-12-30T21:02:33.311Z,94.20
2017-12-30T21:05:01.377Z,94.20
2017-12-30T21:07:29.438Z,94.30
2017-12-30T21:09:57.858Z,93.70
2017-12-30T21:12:25.957Z,93.80
2017-12-30T21:14:54.038Z,93.50
2017-12-30T21:17:22.115Z,93.50
2017-12-30T21:19:50.175Z,93.50
2017-12-30T21:22:18.263Z,93.40
2017-12-30T21:24:46.309Z,93.30
2017-12-30T21:27:14.490Z,93.10
2017-12-30T21:29:43.284Z,93.30
2017-12-30T21:32:11.363Z,93.20
2017-12-30T21:34:39.419Z,92.90
2017-12-30T21:37:07.492Z,92.80
2017-12-30T21:39:35.558Z,92.70
2017-12-30T21:42:03.631Z,92.60
2017-12-30T21:44:31.709Z,92.50
2017-12-30T21:46:59.769Z,92.50
2017-12-30T21:49:27.830Z,92.60
2017-12-30T21:51:56.671Z,92.70
2017-12-30T21:54:24.744Z,92.80
2017-12-30T21:56:52.826Z,92.80
2017-12-30T21:59:21.698Z,92.90
2017-12-30T22:01:50.106Z,92.80
2017-12-30T22:04:18.253Z,92.80
2017-12-30T22:06:46.713Z,92.50
2017-12-30T22:09:14.777Z,92.70
2017-12-30T22:11:42.872Z,92.50
2017-12-30T22:14:10.943Z,92.50
2017-12-30T22:16:39.005Z,92.40
2017-12-30T22:19:07.089Z,92.40
2017-12-30T22:21:35.167Z,92.50
2017-12-30T22:24:03.221Z,92.50
2017-12-30T22:26:31.293Z,92.50
2017-12-30T22:28:59.370Z,92.10
2017-12-30T22:31:27.429Z,92.10
2017-12-30T22:33:55.495Z,91.90
2017-12-30T22:36:23.567Z,91.50
2017-12-30T22:38:51.650Z,91.40
2017-12-30T22:41:19.731Z,91.00
2017-12-30T22:43:47.794Z,90.80
2017-12-30T22:46:15.862Z,90.40
2017-12-30T22:48:43.946Z,90.30
2017-12-30T22:51:12.010Z,90.10
2017-12-30T22:53:40.114Z,90.10
2017-12-30T22:56:08.958Z,88.80
2017-12-30T22:58:37.013Z,88.80
2017-12-30T23:01:07.921Z,89.10
2017-12-30T23:03:35.973Z,89.10
2017-12-30T23:06:04.831Z,88.10
2017-12-30T23:08:32.893Z,88.10
2017-12-30T23:11:00.963Z,86.30
2017-12-30T23:13:29.031Z,86.30
2017-12-30T23:15:57.111Z,86.00
2017-12-30T23:18:25.196Z,84.60
2017-12-30T23:20:53.266Z,84.20
2017-12-30T23:23:21.365Z,84.40
2017-12-30T23:25:50.443Z,83.40
2017-12-30T23:28:18.505Z,83.50
2017-12-30T23:30:46.568Z,81.20
2017-12-30T23:33:14.646Z,81.90
2017-12-30T23:35:42.704Z,80.10
2017-12-30T23:38:10.799Z,80.10
2017-12-30T23:40:38.857Z,79.40
2017-12-30T23:43:06.917Z,80.90
2017-12-30T23:45:34.989Z,79.50
2017-12-30T23:48:03.237Z,79.60
2017-12-30T23:50:31.329Z,79.50
2017-12-30T23:52:59.503Z,79.70
2017-12-30T23:55:27.690Z,80.90
2017-12-30T23:57:55.759Z,80.80
